Terminal Aerodrome Forecast
Issued by NWS

Current Version | Previous Version | Text Only | Print | Product List | Glossary On
Versions: 1 2 3 4 5 6 7 8 9 10 11 12 13 14
885
FTAK31 PAJN 231129
TAFAPG
TAF
PAPG 231129Z 2312/2412 13010G20KT P6SM -RA OVC025 WS020/14040KT
     FM231500 13012G22KT 5SM -RA BR BKN025 OVC035 WS020/14040KT
     FM240300 14008KT 5SM -RA BR OVC020
     FM240800 20004KT P6SM -RA OVC020
      AMD LTD TO CLD VIS AND WIND 2312/2315=

USA.gov is the U.S. government's official web portal to all federal, state and local government web resources and services.